createdAt,value
2023-01-28T00:02:06.832Z,0.40
2023-01-28T00:04:33.614Z,0.56
2023-01-28T00:07:01.699Z,1.14
2023-01-28T00:09:28.405Z,1.26
2023-01-28T00:11:55.230Z,0.88
2023-01-28T00:14:21.969Z,0.84
2023-01-28T00:16:48.691Z,0.71
2023-01-28T00:19:15.472Z,0.66
2023-01-28T00:21:42.284Z,0.60
2023-01-28T00:24:10.580Z,0.51
2023-01-28T00:26:37.444Z,0.39
2023-01-28T00:29:04.204Z,0.30
2023-01-28T00:31:31.224Z,0.30
2023-01-28T00:33:58.034Z,0.42
2023-01-28T00:36:26.096Z,0.67
2023-01-28T00:38:55.404Z,0.50
2023-01-28T00:41:25.929Z,0.77
2023-01-28T00:43:53.384Z,0.73
2023-01-28T00:46:21.671Z,0.82
2023-01-28T00:48:48.734Z,1.09
2023-01-28T00:51:17.479Z,1.06
2023-01-28T00:53:44.672Z,1.21
2023-01-28T00:56:14.074Z,0.97
2023-01-28T00:58:42.456Z,0.85
2023-01-28T01:01:10.644Z,1.17
2023-01-28T01:03:37.889Z,1.16
2023-01-28T01:06:05.455Z,0.86
2023-01-28T01:08:32.335Z,0.78
2023-01-28T01:10:59.112Z,0.58
2023-01-28T01:13:25.865Z,0.67
2023-01-28T01:16:01.894Z,0.45
2023-01-28T01:18:28.656Z,0.33
2023-01-28T01:20:55.394Z,0.53
2023-01-28T01:23:22.203Z,0.40
2023-01-28T01:25:48.976Z,0.35
2023-01-28T01:28:15.674Z,0.30
2023-01-28T01:30:42.450Z,0.37
2023-01-28T01:33:10.568Z,0.43
2023-01-28T01:35:37.259Z,0.37
2023-01-28T01:38:04.001Z,0.34
2023-01-28T01:40:30.806Z,0.43
2023-01-28T01:42:57.576Z,0.62
2023-01-28T01:45:24.330Z,0.77
2023-01-28T01:48:02.364Z,0.67
2023-01-28T01:50:33.709Z,0.68
2023-01-28T01:53:04.643Z,0.51
2023-01-28T01:55:36.642Z,0.43
2023-01-28T01:58:08.162Z,0.37
2023-01-28T02:00:34.989Z,0.49
2023-01-28T02:03:02.424Z,0.35
2023-01-28T02:05:30.541Z,0.42
2023-01-28T02:08:00.035Z,0.37
2023-01-28T02:10:27.037Z,0.37
2023-01-28T02:12:57.659Z,0.38
2023-01-28T02:15:25.798Z,0.34
2023-01-28T02:17:53.115Z,0.32
2023-01-28T02:20:23.201Z,0.52
2023-01-28T02:23:22.686Z,0.50
2023-01-28T02:26:23.036Z,0.37
2023-01-28T02:28:54.992Z,0.54
2023-01-28T02:31:27.336Z,0.64
2023-01-28T02:34:02.438Z,0.52
2023-01-28T02:36:38.003Z,0.46
2023-01-28T02:39:10.607Z,0.76
2023-01-28T02:41:42.626Z,0.63
2023-01-28T02:44:10.785Z,0.60
2023-01-28T02:46:38.134Z,0.53
2023-01-28T02:49:09.618Z,0.47
2023-01-28T02:52:02.693Z,0.35
2023-01-28T02:54:39.137Z,0.38
2023-01-28T02:57:17.976Z,0.35
2023-01-28T02:59:51.411Z,0.45
2023-01-28T03:02:28.093Z,0.43
2023-01-28T03:05:03.210Z,0.41
2023-01-28T03:07:34.458Z,0.31
2023-01-28T03:10:04.451Z,0.32
2023-01-28T03:12:32.382Z,0.31
2023-01-28T03:15:03.965Z,0.26
2023-01-28T03:17:36.412Z,0.37
2023-01-28T03:20:03.804Z,0.34
2023-01-28T03:22:34.431Z,0.38
2023-01-28T03:25:02.478Z,0.36
2023-01-28T03:27:36.871Z,0.33
2023-01-28T03:30:09.724Z,0.48
2023-01-28T03:32:38.281Z,0.37
2023-01-28T03:35:07.650Z,0.39
2023-01-28T03:37:34.917Z,0.47
2023-01-28T03:40:03.099Z,0.53
2023-01-28T03:42:32.346Z,0.43
2023-01-28T03:44:59.428Z,0.46
2023-01-28T03:47:29.289Z,0.67
2023-01-28T03:49:57.682Z,0.45
2023-01-28T03:52:26.889Z,0.57
2023-01-28T03:54:53.709Z,0.49
2023-01-28T03:57:22.270Z,0.41
2023-01-28T03:59:49.268Z,0.36
2023-01-28T04:02:16.909Z,0.33
2023-01-28T04:04:45.617Z,0.38
2023-01-28T04:07:13.776Z,0.34
2023-01-28T04:09:40.496Z,0.37
2023-01-28T04:12:07.532Z,0.35
2023-01-28T04:14:34.273Z,0.40
2023-01-28T04:17:01.267Z,0.35
2023-01-28T04:19:28.267Z,0.42
2023-01-28T04:21:56.393Z,0.46
2023-01-28T04:24:23.616Z,0.35
2023-01-28T04:26:50.494Z,0.57
2023-01-28T04:29:17.259Z,0.44
2023-01-28T04:31:44.178Z,0.36
2023-01-28T04:34:11.053Z,0.38
2023-01-28T04:36:37.783Z,0.29
2023-01-28T04:39:05.929Z,0.30
2023-01-28T04:41:32.693Z,0.40
2023-01-28T04:43:59.514Z,0.34
2023-01-28T04:46:26.290Z,0.32
2023-01-28T04:48:53.100Z,0.35
2023-01-28T04:51:19.835Z,0.32
2023-01-28T04:53:46.561Z,0.31
2023-01-28T04:56:14.682Z,0.33
2023-01-28T04:58:41.536Z,0.34
2023-01-28T05:01:08.447Z,0.32
2023-01-28T05:03:36.395Z,0.31
2023-01-28T05:06:03.510Z,0.34
2023-01-28T05:08:30.467Z,0.32
2023-01-28T05:10:57.191Z,0.36
2023-01-28T05:13:25.402Z,0.28
2023-01-28T05:15:52.775Z,0.24
2023-01-28T05:18:19.586Z,0.35
2023-01-28T05:20:46.360Z,0.41
2023-01-28T05:23:13.086Z,0.42
2023-01-28T05:25:39.860Z,0.58
2023-01-28T05:28:06.583Z,0.54
2023-01-28T05:30:34.774Z,0.49
2023-01-28T05:33:01.590Z,0.46
2023-01-28T05:35:28.370Z,0.39
2023-01-28T05:37:55.127Z,0.39
2023-01-28T05:40:21.978Z,0.40
2023-01-28T05:42:48.733Z,0.33
2023-01-28T05:45:15.762Z,0.74
2023-01-28T05:47:45.740Z,0.63
2023-01-28T05:50:14.671Z,1.22
2023-01-28T05:52:41.800Z,0.95
2023-01-28T05:55:09.564Z,1.09
2023-01-28T05:57:36.431Z,1.02
2023-01-28T06:00:04.669Z,0.98
2023-01-28T06:02:31.516Z,0.95
2023-01-28T06:04:59.766Z,0.86
2023-01-28T06:07:26.600Z,1.23
2023-01-28T06:09:53.345Z,1.31
2023-01-28T06:12:20.103Z,1.23
2023-01-28T06:14:46.937Z,0.98
2023-01-28T06:17:13.715Z,1.06
2023-01-28T06:19:40.537Z,0.70
2023-01-28T06:22:08.815Z,0.56
2023-01-28T06:24:35.857Z,0.44
2023-01-28T06:27:02.630Z,0.48
2023-01-28T06:29:29.459Z,0.39
2023-01-28T06:31:56.321Z,0.47
2023-01-28T06:34:23.106Z,0.44
2023-01-28T06:36:50.005Z,0.63
2023-01-28T06:39:18.160Z,0.55
2023-01-28T06:41:44.961Z,0.51
2023-01-28T06:44:11.853Z,0.65
2023-01-28T06:46:38.626Z,0.75
2023-01-28T06:49:05.408Z,0.64
2023-01-28T06:51:32.728Z,0.84
2023-01-28T06:53:59.462Z,0.89
2023-01-28T06:56:27.626Z,1.12
2023-01-28T06:58:54.393Z,0.92
2023-01-28T07:01:21.153Z,0.90
2023-01-28T07:03:47.927Z,0.81
2023-01-28T07:06:14.683Z,0.87
2023-01-28T07:08:41.399Z,0.68
2023-01-28T07:11:08.459Z,0.69
2023-01-28T07:13:36.651Z,0.65
2023-01-28T07:16:03.599Z,0.64
2023-01-28T07:18:30.324Z,0.56
2023-01-28T07:20:57.949Z,0.66
2023-01-28T07:23:25.006Z,0.75
2023-01-28T07:25:51.824Z,1.24
2023-01-28T07:28:18.873Z,1.61
2023-01-28T07:30:47.974Z,2.00
2023-01-28T07:33:14.727Z,2.65
2023-01-28T07:35:41.538Z,2.96
2023-01-28T07:38:08.382Z,3.40
2023-01-28T07:40:35.176Z,3.43
2023-01-28T07:43:02.122Z,3.19
2023-01-28T07:45:28.954Z,2.67
2023-01-28T07:47:58.532Z,2.12
2023-01-28T07:50:26.240Z,2.16
2023-01-28T07:52:53.076Z,2.07
2023-01-28T07:55:19.946Z,1.85
2023-01-28T07:57:51.101Z,1.70
2023-01-28T08:00:18.855Z,1.65
2023-01-28T08:02:45.768Z,2.30
2023-01-28T08:05:17.104Z,2.45
2023-01-28T08:07:44.519Z,2.70
2023-01-28T08:10:12.146Z,2.83
2023-01-28T08:12:39.399Z,2.58
2023-01-28T08:15:07.451Z,2.69
2023-01-28T08:17:34.376Z,3.48
2023-01-28T08:20:01.055Z,3.18
2023-01-28T08:22:29.299Z,2.98
2023-01-28T08:24:56.140Z,2.82
2023-01-28T08:27:23.034Z,3.06
2023-01-28T08:29:49.802Z,2.86
2023-01-28T08:32:16.541Z,3.01
2023-01-28T08:34:43.312Z,2.94
2023-01-28T08:37:10.124Z,3.62
2023-01-28T08:39:38.495Z,3.71
2023-01-28T08:42:06.057Z,3.46
2023-01-28T08:44:33.329Z,3.66
2023-01-28T08:47:00.212Z,3.74
2023-01-28T08:49:26.989Z,3.47
2023-01-28T08:51:53.781Z,3.60
2023-01-28T08:54:20.718Z,5.49
2023-01-28T08:56:48.915Z,5.44
2023-01-28T08:59:15.767Z,4.52
2023-01-28T09:01:42.607Z,4.11
2023-01-28T09:04:09.568Z,3.45
2023-01-28T09:06:36.559Z,3.16
2023-01-28T09:09:03.555Z,3.97
2023-01-28T09:11:30.327Z,4.12
2023-01-28T09:13:58.697Z,3.59
2023-01-28T09:16:25.623Z,3.66
2023-01-28T09:18:52.433Z,4.49
2023-01-28T09:21:19.213Z,4.81
2023-01-28T09:23:46.038Z,4.58
2023-01-28T09:26:12.913Z,4.21
2023-01-28T09:28:39.785Z,4.09
2023-01-28T09:31:09.903Z,3.62
2023-01-28T09:33:39.175Z,3.65
2023-01-28T09:36:08.733Z,3.89
2023-01-28T09:38:35.611Z,5.48
2023-01-28T09:41:10.774Z,4.48
2023-01-28T09:44:00.196Z,4.91
2023-01-28T09:46:32.610Z,4.38
2023-01-28T09:49:02.836Z,4.22
2023-01-28T09:51:34.248Z,3.57
2023-01-28T09:54:05.850Z,3.38
2023-01-28T09:56:38.984Z,3.25
2023-01-28T09:59:17.365Z,3.00
2023-01-28T10:01:50.319Z,2.60
2023-01-28T10:04:31.258Z,2.64
2023-01-28T10:07:13.531Z,2.70
2023-01-28T10:09:48.907Z,2.70
2023-01-28T10:12:38.016Z,3.53
2023-01-28T10:15:24.171Z,3.34
2023-01-28T10:18:10.954Z,3.60
2023-01-28T10:20:49.046Z,3.37
2023-01-28T10:23:23.745Z,3.25
2023-01-28T10:25:53.527Z,3.01
2023-01-28T10:28:23.710Z,2.73
2023-01-28T10:30:51.121Z,3.50
2023-01-28T10:33:24.838Z,3.39
2023-01-28T10:35:51.690Z,3.90
2023-01-28T10:38:21.698Z,3.62
2023-01-28T10:40:49.159Z,2.99
2023-01-28T10:43:18.913Z,3.29
2023-01-28T10:45:55.406Z,3.03
2023-01-28T10:48:26.171Z,2.63
2023-01-28T10:50:54.472Z,2.50
2023-01-28T10:53:34.200Z,2.79
2023-01-28T10:56:03.232Z,2.94
2023-01-28T10:58:33.797Z,2.81
2023-01-28T11:01:02.784Z,2.76
2023-01-28T11:03:31.541Z,2.87
2023-01-28T11:05:59.258Z,2.66
2023-01-28T11:08:28.875Z,2.57
2023-01-28T11:10:56.586Z,2.32
2023-01-28T11:13:26.029Z,1.97
2023-01-28T11:15:54.726Z,1.69
2023-01-28T11:18:25.117Z,1.78
2023-01-28T11:20:56.439Z,2.02
2023-01-28T11:23:26.284Z,2.01
2023-01-28T11:26:02.870Z,1.69
2023-01-28T11:28:31.332Z,1.61
2023-01-28T11:31:02.016Z,1.73
2023-01-28T11:33:33.577Z,1.97
2023-01-28T11:36:09.035Z,2.02
2023-01-28T11:38:35.805Z,2.34
2023-01-28T11:41:02.882Z,2.14
2023-01-28T11:43:31.460Z,2.00
2023-01-28T11:46:13.025Z,2.05
2023-01-28T11:48:48.339Z,1.93
2023-01-28T11:51:29.543Z,2.06
2023-01-28T11:54:13.005Z,2.13
2023-01-28T11:56:53.682Z,2.43
2023-01-28T11:59:36.413Z,2.11
2023-01-28T12:02:15.540Z,2.15
2023-01-28T12:05:00.910Z,1.96
2023-01-28T12:07:40.312Z,2.10
2023-01-28T12:10:18.764Z,1.82
2023-01-28T12:13:03.233Z,2.25
2023-01-28T12:16:01.038Z,2.00
2023-01-28T12:18:43.761Z,1.86
2023-01-28T12:21:17.875Z,2.00
2023-01-28T12:24:00.671Z,2.18
2023-01-28T12:26:40.035Z,2.29
2023-01-28T12:29:21.171Z,2.15
2023-01-28T12:32:02.137Z,2.33
2023-01-28T12:35:00.410Z,1.92
2023-01-28T12:37:40.832Z,1.75
2023-01-28T12:40:20.634Z,1.49
2023-01-28T12:42:53.893Z,1.32
2023-01-28T12:45:25.143Z,1.50
2023-01-28T12:47:55.880Z,1.39
2023-01-28T12:50:27.470Z,1.29
2023-01-28T12:53:01.358Z,1.12
2023-01-28T12:55:41.344Z,1.85
2023-01-28T12:58:17.303Z,2.13
2023-01-28T13:00:50.131Z,1.85
2023-01-28T13:03:21.377Z,1.84
2023-01-28T13:05:51.974Z,2.05
2023-01-28T13:08:24.216Z,1.74
2023-01-28T13:10:57.962Z,1.62
2023-01-28T13:13:31.368Z,1.51
2023-01-28T13:16:00.199Z,1.50
2023-01-28T13:18:42.500Z,1.90
2023-01-28T13:21:15.217Z,1.80
2023-01-28T13:23:44.107Z,1.78
2023-01-28T13:26:29.335Z,1.73
2023-01-28T13:29:09.024Z,1.52
2023-01-28T13:31:41.047Z,1.57
2023-01-28T13:34:10.146Z,1.66
2023-01-28T13:36:43.848Z,1.40
2023-01-28T13:39:18.625Z,1.52
2023-01-28T13:41:48.493Z,1.67
2023-01-28T13:44:27.929Z,2.03
2023-01-28T13:46:56.697Z,2.13
2023-01-28T13:49:29.904Z,1.62
2023-01-28T13:52:06.274Z,1.60
2023-01-28T13:54:36.587Z,1.56
2023-01-28T13:57:29.168Z,1.26
2023-01-28T14:00:07.889Z,1.51
2023-01-28T14:03:03.282Z,5.38
2023-01-28T14:06:03.876Z,3.91
2023-01-28T14:08:56.536Z,3.06
2023-01-28T14:11:51.080Z,2.23
2023-01-28T14:14:53.467Z,2.16
2023-01-28T14:17:30.723Z,1.72
2023-01-28T14:19:58.592Z,1.51
2023-01-28T14:22:26.650Z,1.55
2023-01-28T14:24:54.017Z,2.52
2023-01-28T14:27:26.658Z,2.97
2023-01-28T14:30:07.855Z,2.13
2023-01-28T14:32:35.227Z,2.05
2023-01-28T14:35:09.392Z,1.61
2023-01-28T14:40:06.794Z,1.33
2023-01-28T14:42:38.892Z,1.74
2023-01-28T14:45:19.644Z,7.41
2023-01-28T14:48:04.317Z,5.18
2023-01-28T14:50:46.330Z,3.72
2023-01-28T14:53:39.750Z,2.75
2023-01-28T14:56:20.314Z,2.27
2023-01-28T14:58:50.359Z,1.81
2023-01-28T15:01:23.244Z,1.79
2023-01-28T15:03:50.382Z,1.72
2023-01-28T15:06:19.145Z,1.77
2023-01-28T15:08:45.984Z,1.56
2023-01-28T15:11:16.169Z,1.69
2023-01-28T15:13:46.292Z,1.54
2023-01-28T15:16:19.088Z,1.43
2023-01-28T15:18:48.024Z,1.49
2023-01-28T15:21:19.998Z,1.46
2023-01-28T15:23:50.387Z,1.81
2023-01-28T15:26:20.173Z,1.69
2023-01-28T15:28:48.391Z,1.86
2023-01-28T15:31:23.715Z,1.76
2023-01-28T15:33:59.404Z,1.74
2023-01-28T15:36:26.914Z,1.93
2023-01-28T15:38:54.229Z,1.77
2023-01-28T15:41:24.257Z,1.85
2023-01-28T15:43:54.308Z,1.63
2023-01-28T15:46:22.086Z,1.80
2023-01-28T15:48:55.687Z,1.79
2023-01-28T15:51:26.358Z,1.59
2023-01-28T15:53:57.790Z,1.97
2023-01-28T15:56:27.147Z,1.92
2023-01-28T15:58:54.395Z,1.94
2023-01-28T16:01:21.671Z,2.20
2023-01-28T16:04:01.557Z,2.23
2023-01-28T16:06:35.648Z,2.26
2023-01-28T16:11:33.477Z,1.94
2023-01-28T16:14:01.161Z,2.15
2023-01-28T16:16:32.038Z,2.63
2023-01-28T16:18:59.391Z,3.00
2023-01-28T16:21:29.456Z,3.75
2023-01-28T16:24:02.595Z,4.12
2023-01-28T16:26:31.371Z,3.73
2023-01-28T16:28:58.896Z,3.05
2023-01-28T16:31:25.814Z,2.98
2023-01-28T16:33:53.035Z,2.66
2023-01-28T16:36:19.848Z,2.82
2023-01-28T16:38:46.941Z,2.75
2023-01-28T16:41:23.838Z,2.42
2023-01-28T16:43:50.757Z,2.31
2023-01-28T16:46:17.503Z,2.08
2023-01-28T16:48:44.644Z,2.14
2023-01-28T16:51:15.923Z,2.15
2023-01-28T16:53:43.299Z,1.88
2023-01-28T16:56:36.048Z,1.87
2023-01-28T16:59:02.927Z,2.04
2023-01-28T17:01:29.812Z,2.12
2023-01-28T17:03:56.765Z,2.46
2023-01-28T17:06:23.593Z,2.44
2023-01-28T17:08:50.396Z,2.51
2023-01-28T17:11:18.523Z,2.22
2023-01-28T17:13:45.360Z,2.28
2023-01-28T17:16:12.097Z,2.10
2023-01-28T17:18:42.621Z,1.89
2023-01-28T17:21:10.957Z,2.09
2023-01-28T17:23:37.766Z,2.06
2023-01-28T17:26:05.522Z,2.18
2023-01-28T17:28:34.179Z,1.73
2023-01-28T17:31:05.729Z,2.04
2023-01-28T17:33:32.615Z,2.33
2023-01-28T17:36:00.634Z,2.99
2023-01-28T17:38:27.404Z,3.15
2023-01-28T17:40:54.296Z,3.40
2023-01-28T17:43:21.084Z,3.48
2023-01-28T17:45:49.218Z,3.44
2023-01-28T17:48:15.992Z,2.81
2023-01-28T17:50:42.912Z,2.58
2023-01-28T17:53:10.632Z,2.43
2023-01-28T17:55:37.460Z,2.15
2023-01-28T17:58:04.629Z,2.06
2023-01-28T18:00:32.049Z,1.71
2023-01-28T18:03:00.270Z,1.49
2023-01-28T18:05:27.043Z,1.35
2023-01-28T18:07:53.875Z,1.24
2023-01-28T18:10:20.643Z,1.45
2023-01-28T18:12:47.395Z,1.69
2023-01-28T18:15:14.592Z,1.53
2023-01-28T18:17:41.641Z,1.81
2023-01-28T18:20:11.096Z,1.71
2023-01-28T18:22:37.953Z,1.69
2023-01-28T18:25:05.471Z,1.67
2023-01-28T18:27:32.245Z,2.03
2023-01-28T18:29:59.025Z,1.83
2023-01-28T18:32:25.837Z,1.94
2023-01-28T18:34:52.691Z,1.61
2023-01-28T18:37:20.773Z,1.29
2023-01-28T18:39:47.564Z,1.27
2023-01-28T18:42:14.298Z,1.18
2023-01-28T18:44:41.043Z,1.29
2023-01-28T18:47:07.805Z,1.18
2023-01-28T18:49:34.537Z,1.06
2023-01-28T18:52:01.247Z,1.13
2023-01-28T18:54:29.392Z,1.20
2023-01-28T18:56:56.095Z,1.14
2023-01-28T18:59:23.001Z,0.85
2023-01-28T19:01:49.786Z,0.74
2023-01-28T19:04:16.815Z,0.62
2023-01-28T19:06:43.567Z,0.84
2023-01-28T19:09:12.153Z,0.86
2023-01-28T19:11:40.776Z,0.84
2023-01-28T19:14:08.099Z,0.73
2023-01-28T19:16:34.950Z,0.55
2023-01-28T19:19:01.924Z,0.48
2023-01-28T19:21:29.971Z,0.75
2023-01-28T19:23:58.212Z,0.63
2023-01-28T19:26:26.321Z,0.57
2023-01-28T19:28:54.530Z,0.59
2023-01-28T19:31:22.494Z,0.56
2023-01-28T19:33:52.924Z,0.48
2023-01-28T19:36:19.679Z,0.48
2023-01-28T19:38:46.433Z,0.52
2023-01-28T19:41:13.371Z,0.89
2023-01-28T19:43:40.158Z,0.97
2023-01-28T19:46:12.820Z,0.84
2023-01-28T19:48:39.688Z,1.33
2023-01-28T19:51:06.811Z,0.96
2023-01-28T19:53:34.060Z,0.71
2023-01-28T19:56:01.637Z,0.61
2023-01-28T19:58:28.559Z,0.51
2023-01-28T20:00:55.595Z,0.50
2023-01-28T20:03:23.716Z,0.50
2023-01-28T20:05:50.501Z,0.56
2023-01-28T20:08:17.266Z,0.77
2023-01-28T20:10:44.100Z,0.67
2023-01-28T20:13:10.812Z,0.61
2023-01-28T20:15:39.945Z,0.64
2023-01-28T20:18:06.761Z,0.48
2023-01-28T20:20:34.918Z,0.49
2023-01-28T20:23:01.644Z,0.54
2023-01-28T20:25:28.477Z,0.47
2023-01-28T20:27:55.265Z,0.67
2023-01-28T20:30:22.064Z,0.91
2023-01-28T20:32:48.852Z,1.05
2023-01-28T20:35:16.055Z,0.93
2023-01-28T20:37:44.451Z,0.82
2023-01-28T20:40:12.520Z,0.91
2023-01-28T20:42:39.284Z,0.83
2023-01-28T20:45:07.304Z,1.12
2023-01-28T20:47:34.103Z,1.03
2023-01-28T20:50:00.812Z,0.86
2023-01-28T20:52:27.566Z,0.91
2023-01-28T20:54:55.709Z,1.10
2023-01-28T20:57:22.462Z,1.15
2023-01-28T20:59:49.228Z,1.01
2023-01-28T21:02:15.972Z,1.14
2023-01-28T21:04:42.708Z,1.31
2023-01-28T21:07:09.481Z,1.13
2023-01-28T21:09:36.274Z,0.89
2023-01-28T21:12:04.882Z,0.86
2023-01-28T21:14:31.668Z,1.09
2023-01-28T21:16:58.490Z,1.13
2023-01-28T21:19:25.318Z,1.02
2023-01-28T21:21:52.055Z,1.05
2023-01-28T21:24:18.836Z,0.95
2023-01-28T21:26:45.754Z,1.05
2023-01-28T21:29:14.123Z,0.86
2023-01-28T21:31:40.878Z,0.78
2023-01-28T21:34:07.708Z,0.85
2023-01-28T21:36:34.523Z,0.78
2023-01-28T21:39:01.437Z,0.69
2023-01-28T21:41:28.371Z,0.66
2023-01-28T21:43:55.931Z,0.67
2023-01-28T21:46:26.003Z,0.82
2023-01-28T21:48:54.233Z,0.88
2023-01-28T21:51:21.052Z,1.18
2023-01-28T21:53:47.860Z,1.33
2023-01-28T21:56:15.874Z,1.42
2023-01-28T21:58:42.675Z,1.39
2023-01-28T22:01:10.176Z,1.28
2023-01-28T22:03:38.346Z,1.42
2023-01-28T22:06:05.645Z,1.21
2023-01-28T22:08:32.559Z,1.10
2023-01-28T22:11:02.105Z,1.30
2023-01-28T22:13:29.403Z,1.43
2023-01-28T22:15:56.233Z,1.40
2023-01-28T22:18:23.106Z,1.43
2023-01-28T22:20:57.651Z,1.29
2023-01-28T22:23:24.482Z,1.06
2023-01-28T22:25:51.233Z,1.07
2023-01-28T22:28:17.971Z,1.28
2023-01-28T22:30:44.926Z,1.64
2023-01-28T22:33:11.820Z,1.64
2023-01-28T22:35:38.580Z,1.58
2023-01-28T22:38:06.700Z,2.01
2023-01-28T22:40:34.767Z,1.83
2023-01-28T22:43:01.619Z,1.78
2023-01-28T22:45:28.367Z,2.30
2023-01-28T22:47:55.215Z,2.11
2023-01-28T22:50:21.966Z,1.73
2023-01-28T22:52:49.281Z,1.48
2023-01-28T22:55:17.475Z,1.48
2023-01-28T22:57:44.277Z,1.77
2023-01-28T23:00:13.726Z,1.52
2023-01-28T23:02:40.659Z,1.45
2023-01-28T23:05:08.091Z,1.78
2023-01-28T23:07:34.810Z,1.74
2023-01-28T23:10:01.825Z,1.72
2023-01-28T23:12:30.059Z,1.75
2023-01-28T23:14:56.811Z,1.64
2023-01-28T23:17:23.669Z,1.43
2023-01-28T23:19:50.542Z,1.50
2023-01-28T23:22:23.018Z,1.25
2023-01-28T23:24:49.953Z,1.43
2023-01-28T23:27:16.645Z,1.23
2023-01-28T23:29:44.807Z,1.22
2023-01-28T23:32:11.660Z,1.48
2023-01-28T23:34:40.582Z,1.21
2023-01-28T23:37:08.956Z,1.35
2023-01-28T23:39:35.768Z,1.35
2023-01-28T23:42:09.390Z,1.58
2023-01-28T23:44:36.147Z,1.77
2023-01-28T23:47:04.353Z,1.60
2023-01-28T23:49:31.135Z,1.53
2023-01-28T23:51:57.935Z,1.68
2023-01-28T23:54:24.665Z,1.83
2023-01-28T23:56:51.399Z,2.11
2023-01-28T23:59:18.200Z,2.01
